createdAt,value
2019-01-23T00:01:59.962Z,-2.60
2019-01-23T00:04:30.771Z,-2.70
2019-01-23T00:07:01.305Z,-2.80
2019-01-23T00:09:31.931Z,-2.80
2019-01-23T00:12:02.699Z,-2.80
2019-01-23T00:14:33.288Z,-2.80
2019-01-23T00:17:03.934Z,-2.80
2019-01-23T00:19:34.759Z,-2.80
2019-01-23T00:22:05.976Z,-2.70
2019-01-23T00:24:36.530Z,-2.80
2019-01-23T00:27:07.069Z,-2.80
2019-01-23T00:29:37.891Z,-2.90
2019-01-23T00:32:09.184Z,-2.90
2019-01-23T00:34:39.804Z,-3.00
2019-01-23T00:37:10.631Z,-3.00
2019-01-23T00:39:41.119Z,-2.90
2019-01-23T00:42:11.930Z,-3.00
2019-01-23T00:44:42.439Z,-3.00
2019-01-23T00:47:12.966Z,-3.00
2019-01-23T00:49:43.832Z,-2.90
2019-01-23T00:52:14.618Z,-2.90
2019-01-23T00:54:45.162Z,-3.00
2019-01-23T00:57:15.915Z,-3.00
2019-01-23T00:59:46.440Z,-3.10
2019-01-23T01:02:16.959Z,-3.10
2019-01-23T01:04:47.525Z,-3.10
2019-01-23T01:07:18.403Z,-3.10
2019-01-23T01:09:49.081Z,-3.10
2019-01-23T01:12:19.930Z,-3.00
2019-01-23T01:14:50.462Z,-3.00
2019-01-23T01:17:20.994Z,-3.00
2019-01-23T01:19:51.493Z,-3.00
2019-01-23T01:22:22.230Z,-3.00
2019-01-23T01:24:53.008Z,-3.00
2019-01-23T01:27:23.495Z,-3.00
2019-01-23T01:29:54.009Z,-3.00
2019-01-23T01:32:24.541Z,-3.00
2019-01-23T01:34:55.062Z,-3.00
2019-01-23T01:37:25.542Z,-2.90
2019-01-23T01:39:56.221Z,-2.80
2019-01-23T01:42:27.112Z,-2.80
2019-01-23T01:44:57.932Z,-2.80
2019-01-23T01:47:28.452Z,-2.90
2019-01-23T01:49:58.991Z,-2.90
2019-01-23T01:52:29.515Z,-3.00
2019-01-23T01:55:00.249Z,-3.00
2019-01-23T01:57:31.031Z,-3.00
2019-01-23T02:00:01.531Z,-3.00
2019-01-23T02:02:32.052Z,-3.00
2019-01-23T02:05:02.556Z,-3.00
2019-01-23T02:07:33.093Z,-3.00
2019-01-23T02:10:04.047Z,-3.00
2019-01-23T02:12:34.537Z,-3.00
2019-01-23T02:15:05.862Z,-3.00
2019-01-23T02:17:36.412Z,-3.00
2019-01-23T02:20:14.202Z,-3.10
2019-01-23T02:22:45.040Z,-3.10
2019-01-23T02:25:15.854Z,-3.10
2019-01-23T02:27:47.212Z,-3.00
2019-01-23T02:30:20.796Z,-3.00
2019-01-23T02:32:51.367Z,-3.00
2019-01-23T02:35:22.129Z,-3.00
2019-01-23T02:37:52.780Z,-3.00
2019-01-23T02:40:24.702Z,-3.10
2019-01-23T02:42:55.354Z,-3.10
2019-01-23T02:45:26.189Z,-3.10
2019-01-23T02:47:56.974Z,-3.10
2019-01-23T02:50:27.522Z,-3.10
2019-01-23T02:52:58.071Z,-3.10
2019-01-23T02:55:28.661Z,-3.10
2019-01-23T02:57:59.246Z,-3.00
2019-01-23T03:00:29.774Z,-3.00
2019-01-23T03:03:00.298Z,-3.00
2019-01-23T03:05:31.073Z,-3.00
2019-01-23T03:08:01.598Z,-3.10
2019-01-23T03:10:32.176Z,-3.10
2019-01-23T03:13:02.695Z,-3.10
2019-01-23T03:15:33.427Z,-3.00
2019-01-23T03:18:04.152Z,-3.00
2019-01-23T03:20:34.627Z,-3.10
2019-01-23T03:23:05.208Z,-3.10
2019-01-23T03:25:35.706Z,-3.10
2019-01-23T03:28:06.418Z,-3.20
2019-01-23T03:30:36.974Z,-3.10
2019-01-23T03:33:07.491Z,-3.10
2019-01-23T03:35:38.168Z,-3.10
2019-01-23T03:38:09.494Z,-3.20
2019-01-23T03:40:40.315Z,-3.20
2019-01-23T03:43:11.516Z,-3.20
2019-01-23T03:45:42.333Z,-3.20
2019-01-23T03:48:13.162Z,-3.20
2019-01-23T03:50:43.832Z,-3.10
2019-01-23T03:53:14.330Z,-3.10
2019-01-23T03:55:45.131Z,-3.10
2019-01-23T03:58:15.683Z,-3.10
2019-01-23T04:00:46.398Z,-3.10
2019-01-23T04:03:17.194Z,-3.10
2019-01-23T04:05:47.748Z,-3.10
2019-01-23T04:08:18.282Z,-3.10
2019-01-23T04:10:48.799Z,-3.10
2019-01-23T04:13:19.617Z,-3.10
2019-01-23T04:15:50.417Z,-3.10
2019-01-23T04:18:21.190Z,-3.10
2019-01-23T04:20:51.672Z,-3.10
2019-01-23T04:23:22.259Z,-3.00
2019-01-23T04:25:52.763Z,-3.00
2019-01-23T04:28:23.600Z,-2.90
2019-01-23T04:30:54.416Z,-2.90
2019-01-23T04:33:25.197Z,-2.80
2019-01-23T04:35:55.725Z,-2.80
2019-01-23T04:38:26.303Z,-2.80
2019-01-23T04:40:56.830Z,-2.80
2019-01-23T04:43:27.347Z,-2.70
2019-01-23T04:45:57.868Z,-2.80
2019-01-23T04:48:28.454Z,-2.80
2019-01-23T04:51:21.295Z,-2.80
2019-01-23T04:53:51.811Z,-2.90
2019-01-23T04:56:22.340Z,-2.90
2019-01-23T04:58:52.823Z,-2.90
2019-01-23T05:01:23.700Z,-3.00
2019-01-23T05:03:54.529Z,-2.90
2019-01-23T05:06:25.311Z,-2.90
2019-01-23T05:08:55.827Z,-2.90
2019-01-23T05:11:27.874Z,-2.90
2019-01-23T05:13:58.369Z,-3.00
2019-01-23T05:16:28.944Z,-2.90
2019-01-23T05:18:59.526Z,-3.00
2019-01-23T05:21:30.070Z,-3.00
2019-01-23T05:24:00.569Z,-3.00
2019-01-23T05:26:31.438Z,-3.00
2019-01-23T05:29:02.009Z,-3.10
2019-01-23T05:31:32.551Z,-3.00
2019-01-23T05:34:03.078Z,-3.00
2019-01-23T05:36:33.629Z,-3.10
2019-01-23T05:39:06.768Z,-3.10
2019-01-23T05:41:37.456Z,-3.10
2019-01-23T05:44:09.111Z,-3.10
2019-01-23T05:46:39.593Z,-3.10
2019-01-23T05:49:10.099Z,-3.10
2019-01-23T05:51:40.646Z,-3.20
2019-01-23T05:54:11.428Z,-3.10
2019-01-23T05:56:41.955Z,-3.10
2019-01-23T05:59:12.434Z,-3.10
2019-01-23T06:01:42.985Z,-3.10
2019-01-23T06:04:13.699Z,-3.10
2019-01-23T06:06:44.498Z,-3.10
2019-01-23T06:09:15.021Z,-3.10
2019-01-23T06:11:45.570Z,-3.20
2019-01-23T06:14:16.160Z,-3.20
2019-01-23T06:16:46.649Z,-3.10
2019-01-23T06:19:17.807Z,-3.20
2019-01-23T06:21:48.682Z,-3.20
2019-01-23T06:24:19.543Z,-3.20
2019-01-23T06:26:50.078Z,-3.30
2019-01-23T06:29:20.635Z,-3.20
2019-01-23T06:31:51.405Z,-3.30
2019-01-23T06:34:21.937Z,-3.30
2019-01-23T06:36:52.744Z,-3.30
2019-01-23T06:39:23.596Z,-3.30
2019-01-23T06:41:54.101Z,-3.30
2019-01-23T06:44:24.661Z,-3.40
2019-01-23T06:46:55.484Z,-3.30
2019-01-23T06:49:25.994Z,-3.30
2019-01-23T06:51:56.718Z,-3.30
2019-01-23T06:54:27.545Z,-3.20
2019-01-23T06:56:58.049Z,-3.20
2019-01-23T06:59:28.624Z,-3.20
2019-01-23T07:01:59.283Z,-3.20
2019-01-23T07:04:29.779Z,-3.20
2019-01-23T07:07:00.309Z,-3.20
2019-01-23T07:09:30.842Z,-3.20
2019-01-23T07:12:01.618Z,-3.30
2019-01-23T07:14:32.151Z,-3.30
2019-01-23T07:17:03.318Z,-3.20
2019-01-23T07:19:33.810Z,-3.20
2019-01-23T07:22:04.497Z,-3.30
2019-01-23T07:24:34.972Z,-3.30
2019-01-23T07:27:05.719Z,-3.20
2019-01-23T07:29:36.520Z,-3.20
2019-01-23T07:32:07.243Z,-3.20
2019-01-23T07:34:37.773Z,-3.20
2019-01-23T07:37:09.988Z,-3.20
2019-01-23T07:39:40.750Z,-3.20
2019-01-23T07:42:11.283Z,-3.10
2019-01-23T07:44:41.807Z,-3.20
2019-01-23T07:47:12.684Z,-3.20
2019-01-23T07:49:43.203Z,-3.20
2019-01-23T07:52:13.958Z,-3.20
2019-01-23T07:54:44.787Z,-3.10
2019-01-23T07:57:15.324Z,-3.10
2019-01-23T07:59:45.866Z,-3.10
2019-01-23T08:02:18.002Z,-3.10
2019-01-23T08:04:48.730Z,-3.10
2019-01-23T08:07:19.270Z,-3.10
2019-01-23T08:09:49.951Z,-3.10
2019-01-23T08:12:20.764Z,-3.00
2019-01-23T08:14:51.302Z,-3.10
2019-01-23T08:17:21.817Z,-3.10
2019-01-23T08:19:52.452Z,-3.00
2019-01-23T08:22:23.037Z,-3.00
2019-01-23T08:24:53.852Z,-2.90
2019-01-23T08:27:24.355Z,-2.90
2019-01-23T08:29:54.867Z,-2.90
2019-01-23T08:32:25.453Z,-3.00
2019-01-23T08:34:55.997Z,-3.00
2019-01-23T08:37:27.099Z,-2.90
2019-01-23T08:39:57.971Z,-2.90
2019-01-23T08:42:28.527Z,-2.80
2019-01-23T08:44:59.080Z,-2.80
2019-01-23T08:47:29.855Z,-2.90
2019-01-23T08:50:00.407Z,-2.80
2019-01-23T08:52:30.916Z,-2.70
2019-01-23T08:55:01.421Z,-2.70
2019-01-23T08:57:31.997Z,-2.70
2019-01-23T09:00:02.883Z,-2.70
2019-01-23T09:02:33.404Z,-2.80
2019-01-23T09:05:04.542Z,-2.80
2019-01-23T09:07:35.137Z,-2.70
2019-01-23T09:10:09.628Z,-2.80
2019-01-23T09:12:40.124Z,-2.70
2019-01-23T09:15:12.313Z,-2.60
2019-01-23T09:17:42.855Z,-2.60
2019-01-23T09:20:15.724Z,-2.60
2019-01-23T09:22:46.335Z,-2.60
2019-01-23T09:25:19.569Z,-2.50
2019-01-23T09:27:50.139Z,-2.50
2019-01-23T09:30:34.047Z,-2.50
2019-01-23T09:33:45.673Z,-2.40
2019-01-23T09:37:07.673Z,-2.50
2019-01-23T09:40:25.387Z,-2.50
2019-01-23T09:43:59.113Z,-2.40
2019-01-23T09:47:24.987Z,-2.30
2019-01-23T09:50:58.627Z,-2.40
2019-01-23T09:53:39.952Z,-2.40
2019-01-23T09:56:11.161Z,-2.40
2019-01-23T09:58:42.112Z,-2.40
2019-01-23T10:01:12.627Z,-2.30
2019-01-23T10:03:43.181Z,-2.20
2019-01-23T10:06:13.976Z,-2.20
2019-01-23T10:08:45.808Z,-2.20
2019-01-23T10:11:16.385Z,-2.20
2019-01-23T10:13:46.961Z,-2.10
2019-01-23T10:16:20.281Z,-2.10
2019-01-23T10:18:56.033Z,-2.30
2019-01-23T10:21:23.520Z,-2.40
2019-01-23T10:23:54.079Z,-2.60
2019-01-23T10:26:24.674Z,-2.40
2019-01-23T10:28:55.319Z,-2.40
2019-01-23T10:31:26.171Z,-2.30
2019-01-23T10:33:56.768Z,-2.20
2019-01-23T10:36:27.441Z,-2.20
2019-01-23T10:38:58.100Z,-2.10
2019-01-23T10:41:31.643Z,-2.10
2019-01-23T10:44:02.235Z,-2.10
2019-01-23T10:46:33.041Z,-1.90
2019-01-23T10:49:03.574Z,-1.90
2019-01-23T10:51:34.265Z,-2.20
2019-01-23T10:54:05.220Z,-2.30
2019-01-23T10:56:36.167Z,-2.30
2019-01-23T10:59:06.693Z,-2.30
2019-01-23T11:01:37.258Z,-2.40
2019-01-23T11:04:07.957Z,-2.40
2019-01-23T11:06:38.501Z,-2.60
2019-01-23T11:09:10.919Z,-2.60
2019-01-23T11:11:41.466Z,-2.60
2019-01-23T11:14:12.120Z,-2.60
2019-01-23T11:16:42.668Z,-2.60
2019-01-23T11:19:13.625Z,-2.60
2019-01-23T11:21:44.337Z,-2.70
2019-01-23T11:24:15.233Z,-2.50
2019-01-23T11:26:46.061Z,-2.20
2019-01-23T11:29:16.639Z,-2.20
2019-01-23T11:31:47.195Z,-2.10
2019-01-23T11:34:17.784Z,-2.10
2019-01-23T11:36:48.352Z,-2.10
2019-01-23T11:39:19.195Z,-2.20
2019-01-23T11:41:49.701Z,-2.20
2019-01-23T11:44:20.209Z,-2.40
2019-01-23T11:46:50.768Z,-2.40
2019-01-23T11:49:21.450Z,-2.60
2019-01-23T11:51:52.312Z,-2.60
2019-01-23T11:54:25.889Z,-2.50
2019-01-23T11:56:56.443Z,-2.50
2019-01-23T11:59:27.346Z,-2.40
2019-01-23T12:01:58.245Z,-2.30
2019-01-23T12:04:28.775Z,-2.20
2019-01-23T12:06:59.428Z,-2.10
2019-01-23T12:09:30.264Z,-2.00
2019-01-23T12:12:00.803Z,-2.00
2019-01-23T12:14:31.323Z,-2.10
2019-01-23T12:17:02.146Z,-2.10
2019-01-23T12:19:33.007Z,-2.20
2019-01-23T12:22:03.589Z,-2.30
2019-01-23T12:24:34.366Z,-2.40
2019-01-23T12:27:05.287Z,-2.40
2019-01-23T12:29:36.096Z,-2.30
2019-01-23T12:32:06.882Z,-2.30
2019-01-23T12:34:37.432Z,-2.30
2019-01-23T12:37:08.050Z,-2.20
2019-01-23T12:39:38.584Z,-2.20
2019-01-23T12:42:10.722Z,-2.30
2019-01-23T12:44:41.363Z,-2.30
2019-01-23T12:47:12.246Z,-2.30
2019-01-23T12:49:42.839Z,-2.30
2019-01-23T12:52:13.747Z,-2.40
2019-01-23T12:54:44.421Z,-2.30
2019-01-23T12:57:15.285Z,-2.30
2019-01-23T12:59:45.801Z,-2.30
2019-01-23T13:02:16.348Z,-2.40
2019-01-23T13:04:47.194Z,-2.40
2019-01-23T13:07:17.996Z,-2.20
2019-01-23T13:09:48.591Z,-2.20
2019-01-23T13:12:19.438Z,-2.20
2019-01-23T13:14:50.268Z,-2.10
2019-01-23T13:17:20.807Z,-2.30
2019-01-23T13:19:51.381Z,-2.20
2019-01-23T13:22:22.015Z,-2.00
2019-01-23T13:24:52.713Z,-2.00
2019-01-23T13:27:23.575Z,-1.90
2019-01-23T13:29:54.387Z,-1.90
2019-01-23T13:32:24.903Z,-1.90
2019-01-23T13:34:55.457Z,-2.10
2019-01-23T13:37:26.679Z,-2.10
2019-01-23T13:39:57.488Z,-2.20
2019-01-23T13:42:28.504Z,-2.40
2019-01-23T13:44:59.384Z,-2.50
2019-01-23T13:47:29.924Z,-2.50
2019-01-23T13:50:00.507Z,-2.40
2019-01-23T13:52:31.406Z,-2.40
2019-01-23T13:55:02.137Z,-2.50
2019-01-23T13:57:32.609Z,-2.60
2019-01-23T14:00:03.752Z,-2.60
2019-01-23T14:02:34.404Z,-2.60
2019-01-23T14:05:05.522Z,-2.80
2019-01-23T14:07:36.380Z,-2.70
2019-01-23T14:10:09.548Z,-2.70
2019-01-23T14:12:40.146Z,-2.70
2019-01-23T14:15:16.442Z,-2.70
2019-01-23T14:17:47.007Z,-2.80
2019-01-23T14:20:18.063Z,-2.80
2019-01-23T14:22:48.612Z,-2.60
2019-01-23T14:25:19.246Z,-2.60
2019-01-23T14:27:49.822Z,-2.70
2019-01-23T14:30:44.837Z,-2.80
2019-01-23T14:33:15.661Z,-2.80
2019-01-23T14:35:47.679Z,-2.90
2019-01-23T14:38:18.510Z,-2.80
2019-01-23T14:40:49.120Z,-2.80
2019-01-23T14:43:19.760Z,-2.80
2019-01-23T14:45:50.604Z,-2.80
2019-01-23T14:48:21.540Z,-2.80
2019-01-23T14:50:52.107Z,-2.90
2019-01-23T14:53:22.671Z,-2.90
2019-01-23T14:55:53.545Z,-2.90
2019-01-23T14:58:24.136Z,-2.90
2019-01-23T15:00:54.731Z,-3.00
2019-01-23T15:03:25.566Z,-2.90
2019-01-23T15:05:56.199Z,-2.90
2019-01-23T15:08:26.779Z,-2.80
2019-01-23T15:10:57.631Z,-2.80
2019-01-23T15:13:28.859Z,-2.80
2019-01-23T15:16:00.114Z,-2.80
2019-01-23T15:18:30.780Z,-2.90
2019-01-23T15:21:01.626Z,-2.80
2019-01-23T15:23:32.574Z,-2.80
2019-01-23T15:26:03.183Z,-2.90
2019-01-23T15:28:33.806Z,-2.90
2019-01-23T15:31:04.363Z,-2.90
2019-01-23T15:33:34.921Z,-2.80
2019-01-23T15:36:05.900Z,-2.80
2019-01-23T15:38:36.648Z,-2.80
2019-01-23T15:41:07.209Z,-2.70
2019-01-23T15:43:37.752Z,-2.60
2019-01-23T15:46:08.449Z,-2.60
2019-01-23T15:48:39.356Z,-2.60
2019-01-23T15:51:11.640Z,-2.60
2019-01-23T15:53:42.184Z,-2.70
2019-01-23T15:56:12.752Z,-2.70
2019-01-23T15:58:43.658Z,-2.80
2019-01-23T16:01:14.557Z,-2.80
2019-01-23T16:03:46.954Z,-2.70
2019-01-23T16:06:19.368Z,-2.70
2019-01-23T16:08:51.573Z,-2.70
2019-01-23T16:11:22.222Z,-2.70
2019-01-23T16:13:52.864Z,-2.70
2019-01-23T16:16:24.104Z,-2.70
2019-01-23T16:18:55.762Z,-2.70
2019-01-23T16:21:26.371Z,-2.70
2019-01-23T16:23:56.952Z,-2.70
2019-01-23T16:26:29.851Z,-2.60
2019-01-23T16:29:02.206Z,-2.60
2019-01-23T16:31:34.458Z,-2.60
2019-01-23T16:34:05.099Z,-2.60
2019-01-23T16:36:35.990Z,-2.70
2019-01-23T16:39:09.405Z,-2.70
2019-01-23T16:41:40.209Z,-2.70
2019-01-23T16:44:11.263Z,-2.70
2019-01-23T16:46:41.865Z,-2.60
2019-01-23T16:49:13.086Z,-2.60
2019-01-23T16:51:44.032Z,-2.60
2019-01-23T16:54:15.248Z,-2.60
2019-01-23T16:56:46.142Z,-2.60
2019-01-23T16:59:17.436Z,-2.60
2019-01-23T17:01:48.145Z,-2.70
2019-01-23T17:04:18.974Z,-2.70
2019-01-23T17:06:49.628Z,-2.70
2019-01-23T17:09:20.187Z,-2.60
2019-01-23T17:11:50.913Z,-2.70
2019-01-23T17:14:23.041Z,-2.70
2019-01-23T17:16:55.356Z,-2.80
2019-01-23T17:19:26.233Z,-2.80
2019-01-23T17:21:57.002Z,-2.80
2019-01-23T17:24:27.855Z,-2.90
2019-01-23T17:27:00.612Z,-2.90
2019-01-23T17:29:31.184Z,-2.90
2019-01-23T17:32:01.911Z,-3.00
2019-01-23T17:34:32.559Z,-3.00
2019-01-23T17:37:03.136Z,-2.90
2019-01-23T17:39:33.869Z,-2.90
2019-01-23T17:42:04.569Z,-3.00
2019-01-23T17:44:35.191Z,-3.00
2019-01-23T17:47:07.788Z,-3.00
2019-01-23T17:49:38.433Z,-3.10
2019-01-23T17:52:09.029Z,-3.20
2019-01-23T17:54:39.920Z,-3.10
2019-01-23T17:57:11.329Z,-3.20
2019-01-23T17:59:41.899Z,-3.20
2019-01-23T18:02:13.742Z,-3.20
2019-01-23T18:04:51.255Z,-3.30
2019-01-23T18:07:22.829Z,-3.30
2019-01-23T18:10:03.777Z,-3.30
2019-01-23T18:12:34.601Z,-3.30
2019-01-23T18:15:07.713Z,-3.40
2019-01-23T18:17:38.361Z,-3.40
2019-01-23T18:20:18.252Z,-3.40
2019-01-23T18:22:51.196Z,-3.40
2019-01-23T18:25:23.210Z,-3.30
2019-01-23T18:27:54.130Z,-3.30
2019-01-23T18:31:17.712Z,-3.40
2019-01-23T18:34:35.870Z,-3.40
2019-01-23T18:37:26.491Z,-3.40
2019-01-23T18:40:47.134Z,-3.40
2019-01-23T18:44:21.968Z,-3.50
2019-01-23T18:47:28.631Z,-3.50
2019-01-23T18:50:58.709Z,-3.50
2019-01-23T18:53:29.298Z,-3.60
2019-01-23T18:56:02.693Z,-3.60
2019-01-23T18:58:33.231Z,-3.50
2019-01-23T19:01:04.027Z,-3.40
2019-01-23T19:03:34.866Z,-3.40
2019-01-23T19:06:05.602Z,-3.60
2019-01-23T19:08:37.987Z,-3.40
2019-01-23T19:11:10.086Z,-3.40
2019-01-23T19:13:42.682Z,-3.40
2019-01-23T19:16:13.581Z,-3.40
2019-01-23T19:18:44.173Z,-3.50
2019-01-23T19:21:15.426Z,-3.40
2019-01-23T19:23:46.242Z,-3.40
2019-01-23T19:26:17.152Z,-3.40
2019-01-23T19:28:48.092Z,-3.50
2019-01-23T19:31:19.056Z,-3.60
2019-01-23T19:33:49.776Z,-3.50
2019-01-23T19:36:20.697Z,-3.60
2019-01-23T19:38:51.434Z,-3.50
2019-01-23T19:41:22.346Z,-3.50
2019-01-23T19:43:53.173Z,-3.60
2019-01-23T19:46:24.067Z,-3.60
2019-01-23T19:48:54.656Z,-3.70
2019-01-23T19:51:25.333Z,-3.60
2019-01-23T19:53:56.267Z,-3.50
2019-01-23T19:56:27.111Z,-3.50
2019-01-23T19:58:57.734Z,-3.60
2019-01-23T20:01:28.344Z,-3.50
2019-01-23T20:03:59.149Z,-3.60
2019-01-23T20:06:29.795Z,-3.60
2019-01-23T20:09:00.458Z,-3.60
2019-01-23T20:11:31.400Z,-3.70
2019-01-23T20:14:02.173Z,-3.70
2019-01-23T20:16:33.109Z,-3.80
2019-01-23T20:19:07.698Z,-3.70
2019-01-23T20:21:38.310Z,-3.80
2019-01-23T20:24:08.917Z,-3.70
2019-01-23T20:26:41.519Z,-3.70
2019-01-23T20:29:12.371Z,-3.70
2019-01-23T20:31:43.205Z,-3.60
2019-01-23T20:34:13.904Z,-3.60
2019-01-23T20:36:44.511Z,-3.60
2019-01-23T20:39:15.593Z,-3.60
2019-01-23T20:41:46.393Z,-3.80
2019-01-23T20:44:17.241Z,-3.80
2019-01-23T20:46:48.163Z,-3.70
2019-01-23T20:49:18.752Z,-3.70
2019-01-23T20:51:49.453Z,-3.70
2019-01-23T20:54:20.401Z,-3.80
2019-01-23T20:56:51.234Z,-3.70
2019-01-23T20:59:21.796Z,-3.70
2019-01-23T21:01:52.436Z,-3.80
2019-01-23T21:04:23.634Z,-3.80
2019-01-23T21:06:54.467Z,-3.70
2019-01-23T21:09:25.412Z,-3.70
2019-01-23T21:11:56.318Z,-3.70
2019-01-23T21:14:27.285Z,-3.80
2019-01-23T21:16:58.114Z,-3.90
2019-01-23T21:19:29.180Z,-3.80
2019-01-23T21:21:59.767Z,-3.90
2019-01-23T21:24:30.494Z,-3.80
2019-01-23T21:27:01.269Z,-3.80
2019-01-23T21:29:32.266Z,-3.80
2019-01-23T21:32:02.815Z,-3.90
2019-01-23T21:34:33.392Z,-3.90
2019-01-23T21:37:04.063Z,-3.90
2019-01-23T21:39:34.654Z,-3.90
2019-01-23T21:42:05.340Z,-3.90
2019-01-23T21:44:36.230Z,-3.80
2019-01-23T21:47:06.846Z,-3.80
2019-01-23T21:49:37.408Z,-3.70
2019-01-23T21:52:08.153Z,-3.90
2019-01-23T21:54:38.733Z,-3.90
2019-01-23T21:57:09.672Z,-4.00
2019-01-23T21:59:40.363Z,-3.90
2019-01-23T22:02:11.656Z,-3.90
2019-01-23T22:04:42.344Z,-4.00
2019-01-23T22:07:13.613Z,-3.90
2019-01-23T22:09:44.606Z,-4.00
2019-01-23T22:12:15.567Z,-3.90
2019-01-23T22:14:46.295Z,-3.90
2019-01-23T22:17:16.902Z,-4.00
2019-01-23T22:19:47.530Z,-4.00
2019-01-23T22:22:18.352Z,-4.00
2019-01-23T22:24:48.856Z,-4.00
2019-01-23T22:27:19.727Z,-4.00
2019-01-23T22:29:50.396Z,-4.00
2019-01-23T22:32:20.936Z,-4.00
2019-01-23T22:34:51.601Z,-4.10
2019-01-23T22:37:22.424Z,-4.10
2019-01-23T22:39:53.019Z,-4.10
2019-01-23T22:42:23.755Z,-4.10
2019-01-23T22:44:54.374Z,-4.10
2019-01-23T22:47:24.932Z,-4.10
2019-01-23T22:49:55.490Z,-4.00
2019-01-23T22:52:26.644Z,-4.00
2019-01-23T22:54:57.487Z,-4.00
2019-01-23T22:57:28.340Z,-4.10
2019-01-23T22:59:58.878Z,-4.10
2019-01-23T23:02:29.503Z,-4.10
2019-01-23T23:05:00.378Z,-4.20
2019-01-23T23:07:30.908Z,-4.10
2019-01-23T23:10:01.652Z,-4.00
2019-01-23T23:12:32.587Z,-4.10
2019-01-23T23:15:03.465Z,-4.10
2019-01-23T23:17:34.287Z,-4.10
2019-01-23T23:20:05.598Z,-4.10
2019-01-23T23:22:36.408Z,-4.10
2019-01-23T23:25:08.040Z,-4.10
2019-01-23T23:27:39.567Z,-4.10
2019-01-23T23:30:13.682Z,-4.20
2019-01-23T23:32:44.454Z,-4.20
2019-01-23T23:35:15.037Z,-4.20
2019-01-23T23:37:45.597Z,-4.30
2019-01-23T23:40:16.409Z,-4.30
2019-01-23T23:42:46.959Z,-4.40
2019-01-23T23:45:18.005Z,-4.40
2019-01-23T23:47:48.665Z,-4.30
2019-01-23T23:50:19.786Z,-4.40
2019-01-23T23:52:50.477Z,-4.30
2019-01-23T23:55:21.326Z,-4.30
2019-01-23T23:57:51.824Z,-4.20
